Time;durP1;ratioP1;P1;durP2;ratioP2;P2;SDS_P1;SDS_P2;PMS_P1;PMS_P2;Temp;Humidity;BMP_temperature;BMP_pressure;BME280_temperature;BME280_humidity;BME280_pressure;Samples;Min_cycle;Max_cycle;Signal;HPM_P1;HPM_P2
2022/07/28 00:00:28;;;;;;;5.68;3.00;;;;;;;;;;5112650;27;20051;-64
2022/07/28 00:02:54;;;;;;;7.65;2.60;;;;;;;;;;5129455;27;22065;-64
2022/07/28 00:05:21;;;;;;;4.72;2.38;;;;;;;;;;5108011;27;20082;-64
2022/07/28 00:07:47;;;;;;;4.93;2.30;;;;;;;;;;5129242;27;20135;-64
2022/07/28 00:10:13;;;;;;;4.28;2.15;;;;;;;;;;5129482;27;20043;-64
2022/07/28 00:12:39;;;;;;;7.40;2.08;;;;;;;;;;5109115;27;20053;-64
2022/07/28 00:15:06;;;;;;;6.30;2.20;;;;;;;;;;5128169;27;20424;-64
2022/07/28 00:17:32;;;;;;;3.67;2.13;;;;;;;;;;5124711;27;20057;-64
2022/07/28 00:19:58;;;;;;;7.07;2.42;;;;;;;;;;5113662;27;20061;-64
2022/07/28 00:22:24;;;;;;;5.95;2.20;;;;;;;;;;5128346;27;20187;-64
2022/07/28 00:24:51;;;;;;;5.80;2.10;;;;;;;;;;5130806;27;20042;-64
2022/07/28 00:27:17;;;;;;;4.55;2.10;;;;;;;;;;5128305;27;21969;-64
2022/07/28 00:29:43;;;;;;;5.45;2.20;;;;;;;;;;5127893;27;20474;-64
2022/07/28 00:32:09;;;;;;;3.97;2.30;;;;;;;;;;5112795;27;20099;-64
2022/07/28 00:34:36;;;;;;;4.20;2.65;;;;;;;;;;5126177;27;20042;-64
2022/07/28 00:37:02;;;;;;;4.15;2.53;;;;;;;;;;5108719;27;20117;-64
2022/07/28 00:39:28;;;;;;;6.35;2.60;;;;;;;;;;5124573;27;20410;-64
2022/07/28 00:41:54;;;;;;;3.78;1.85;;;;;;;;;;5123160;27;20039;-64
2022/07/28 00:44:20;;;;;;;5.75;1.70;;;;;;;;;;5127485;27;20054;-64
2022/07/28 00:46:47;;;;;;;8.07;2.00;;;;;;;;;;5130051;27;20031;-64
2022/07/28 00:49:14;;;;;;;5.03;2.22;;;;;;;;;;5107209;27;20046;-64
2022/07/28 00:51:41;;;;;;;4.28;2.40;;;;;;;;;;5131336;27;20038;-64
2022/07/28 00:54:07;;;;;;;4.95;2.30;;;;;;;;;;5115527;27;20039;-65
2022/07/28 00:56:33;;;;;;;5.00;2.70;;;;;;;;;;5130781;27;20035;-64
2022/07/28 00:59:00;;;;;;;6.28;2.58;;;;;;;;;;5107606;27;20119;-64
2022/07/28 01:01:26;;;;;;;6.68;3.22;;;;;;;;;;5109235;27;20546;-64
2022/07/28 01:03:57;;;;;;;5.88;2.63;;;;;;;;;;5105654;27;20054;-64
2022/07/28 01:06:43;;;;;;;6.82;2.53;;;;;;;;;;5112853;27;20042;-64
2022/07/28 01:09:27;;;;;;;6.32;2.50;;;;;;;;;;5132941;27;20076;-64
2022/07/28 01:11:56;;;;;;;4.55;2.65;;;;;;;;;;5116642;27;20050;-64
2022/07/28 01:14:27;;;;;;;7.03;2.13;;;;;;;;;;5134189;27;20138;-64
2022/07/28 01:17:00;;;;;;;4.70;2.42;;;;;;;;;;5131277;27;20043;-64
2022/07/28 01:19:33;;;;;;;3.33;1.98;;;;;;;;;;5132601;27;20117;-65
2022/07/28 01:22:00;;;;;;;4.07;2.20;;;;;;;;;;5111333;27;20117;-64
2022/07/28 01:24:30;;;;;;;6.85;2.05;;;;;;;;;;5128781;27;20648;-64
2022/07/28 01:26:56;;;;;;;4.60;1.98;;;;;;;;;;5113640;27;20130;-64
2022/07/28 01:29:33;;;;;;;6.13;2.22;;;;;;;;;;5113817;27;20633;-64
2022/07/28 01:32:04;;;;;;;5.03;2.33;;;;;;;;;;5133103;27;20046;-64
2022/07/28 01:34:33;;;;;;;5.63;2.30;;;;;;;;;;5133755;27;20509;-64
2022/07/28 01:37:03;;;;;;;4.53;2.20;;;;;;;;;;5131625;27;20039;-64
2022/07/28 01:39:31;;;;;;;7.10;2.83;;;;;;;;;;5134684;27;20110;-64
2022/07/28 01:41:58;;;;;;;5.20;2.72;;;;;;;;;;5133509;27;20191;-64
2022/07/28 01:44:26;;;;;;;5.30;2.45;;;;;;;;;;5110252;27;20043;-64
2022/07/28 01:46:53;;;;;;;5.13;2.95;;;;;;;;;;5128083;27;20063;-64
2022/07/28 01:49:20;;;;;;;5.95;3.53;;;;;;;;;;5111710;27;20043;-64
2022/07/28 01:51:47;;;;;;;5.68;3.38;;;;;;;;;;5127959;27;20167;-64
2022/07/28 01:54:14;;;;;;;4.35;2.72;;;;;;;;;;5127850;27;20047;-64
2022/07/28 01:56:41;;;;;;;7.03;3.05;;;;;;;;;;5133718;27;20039;-64
2022/07/28 01:59:08;;;;;;;8.90;3.00;;;;;;;;;;5131703;27;20063;-64
2022/07/28 02:01:36;;;;;;;5.88;3.03;;;;;;;;;;5134370;27;20042;-64
2022/07/28 02:04:04;;;;;;;6.93;3.35;;;;;;;;;;5109665;27;20047;-64
2022/07/28 02:06:31;;;;;;;9.57;2.55;;;;;;;;;;5105226;27;20051;-64
2022/07/28 02:08:59;;;;;;;6.45;3.70;;;;;;;;;;5125679;27;20035;-64
2022/07/28 02:11:41;;;;;;;9.43;3.38;;;;;;;;;;5130527;27;20547;-64
2022/07/28 02:14:10;;;;;;;7.47;2.90;;;;;;;;;;5131128;27;20039;-64
2022/07/28 02:16:40;;;;;;;4.22;2.40;;;;;;;;;;5125812;27;20042;-64
2022/07/28 02:19:07;;;;;;;4.63;2.20;;;;;;;;;;5107682;27;20061;-64
2022/07/28 02:21:34;;;;;;;4.68;2.28;;;;;;;;;;5118457;27;20054;-64
2022/07/28 02:24:00;;;;;;;4.88;2.33;;;;;;;;;;5132370;27;20074;-64
2022/07/28 02:26:28;;;;;;;4.93;2.60;;;;;;;;;;5109229;27;20078;-64
2022/07/28 02:28:56;;;;;;;4.05;2.65;;;;;;;;;;5125432;27;20083;-64
2022/07/28 02:31:28;;;;;;;4.25;2.55;;;;;;;;;;5104875;27;20054;-64
2022/07/28 02:33:55;;;;;;;5.97;2.83;;;;;;;;;;5126206;27;20062;-64
2022/07/28 02:36:27;;;;;;;7.22;2.50;;;;;;;;;;5111611;27;20383;-64
2022/07/28 02:38:55;;;;;;;4.97;2.70;;;;;;;;;;5110016;27;20039;-65
2022/07/28 02:41:26;;;;;;;4.32;2.60;;;;;;;;;;5125410;27;20086;-64
2022/07/28 02:43:54;;;;;;;5.90;2.90;;;;;;;;;;5129858;27;20131;-64
2022/07/28 02:46:24;;;;;;;6.40;2.45;;;;;;;;;;5136341;27;20083;-64
2022/07/28 02:48:52;;;;;;;10.38;2.67;;;;;;;;;;5131822;27;20043;-64
2022/07/28 02:51:21;;;;;;;7.57;2.75;;;;;;;;;;5104644;27;20129;-64
2022/07/28 02:53:47;;;;;;;3.72;2.45;;;;;;;;;;5124560;27;20391;-64
2022/07/28 02:56:16;;;;;;;4.70;2.42;;;;;;;;;;5126298;27;20046;-64
2022/07/28 02:58:42;;;;;;;5.70;2.47;;;;;;;;;;5107646;27;20444;-64
2022/07/28 03:01:09;;;;;;;6.82;2.75;;;;;;;;;;5124312;27;20047;-64
2022/07/28 03:03:35;;;;;;;5.45;2.20;;;;;;;;;;5128917;27;20123;-64
2022/07/28 03:06:02;;;;;;;4.85;2.00;;;;;;;;;;5122677;27;20080;-64
2022/07/28 03:08:28;;;;;;;4.95;2.60;;;;;;;;;;5110374;27;20055;-64
2022/07/28 03:11:07;;;;;;;5.40;3.17;;;;;;;;;;5128460;27;20491;-64
2022/07/28 03:13:33;;;;;;;5.90;2.53;;;;;;;;;;5112141;27;20085;-64
2022/07/28 03:16:00;;;;;;;7.50;2.60;;;;;;;;;;5104234;27;20071;-64
2022/07/28 03:18:27;;;;;;;6.10;3.00;;;;;;;;;;5105219;27;20138;-64
2022/07/28 03:20:54;;;;;;;7.65;3.05;;;;;;;;;;5106058;27;20446;-65
2022/07/28 03:23:22;;;;;;;4.70;3.05;;;;;;;;;;5108550;27;20043;-64
2022/07/28 03:25:50;;;;;;;4.72;2.58;;;;;;;;;;5107344;27;20528;-64
2022/07/28 03:28:18;;;;;;;5.07;2.85;;;;;;;;;;5113079;27;20130;-64
2022/07/28 03:30:47;;;;;;;5.00;2.47;;;;;;;;;;5111423;27;20039;-64
2022/07/28 03:33:13;;;;;;;5.60;2.80;;;;;;;;;;5110319;27;20059;-64
2022/07/28 03:35:43;;;;;;;8.57;2.90;;;;;;;;;;5107392;27;20416;-63
2022/07/28 03:38:20;;;;;;;5.85;2.95;;;;;;;;;;5109914;27;20086;-64
2022/07/28 03:40:47;;;;;;;5.53;2.88;;;;;;;;;;5107658;27;20031;-65
2022/07/28 03:43:16;;;;;;;9.45;2.78;;;;;;;;;;5108403;27;20046;-64
2022/07/28 03:45:42;;;;;;;6.97;2.40;;;;;;;;;;5104334;27;20058;-64
2022/07/28 03:48:09;;;;;;;5.20;2.70;;;;;;;;;;5103946;27;20063;-64
2022/07/28 03:50:35;;;;;;;5.63;2.42;;;;;;;;;;5105124;27;21844;-64
2022/07/28 03:53:02;;;;;;;4.05;2.60;;;;;;;;;;5107299;27;20367;-64
2022/07/28 03:55:28;;;;;;;4.93;2.15;;;;;;;;;;5111526;27;20034;-64
2022/07/28 03:57:55;;;;;;;6.15;2.60;;;;;;;;;;5104846;27;20051;-64
2022/07/28 04:00:22;;;;;;;4.90;2.40;;;;;;;;;;5107446;27;20039;-64
2022/07/28 04:02:48;;;;;;;6.88;3.03;;;;;;;;;;5111294;27;20041;-65
2022/07/28 04:05:15;;;;;;;3.90;2.25;;;;;;;;;;5105952;27;20055;-64
2022/07/28 04:07:42;;;;;;;4.97;2.75;;;;;;;;;;5113601;28;20498;-64
2022/07/28 04:10:09;;;;;;;5.95;2.83;;;;;;;;;;5101367;28;20042;-64
2022/07/28 04:12:47;;;;;;;5.85;3.15;;;;;;;;;;5102822;28;20067;-64
2022/07/28 04:15:13;;;;;;;13.90;3.10;;;;;;;;;;5105890;27;20051;-64
2022/07/28 04:17:40;;;;;;;5.32;2.50;;;;;;;;;;5125108;27;20091;-64
2022/07/28 04:20:07;;;;;;;5.22;2.78;;;;;;;;;;5103404;27;20206;-64
2022/07/28 04:22:33;;;;;;;3.75;1.50;;;;;;;;;;5125497;27;20124;-64
2022/07/28 04:25:00;;;;;;;7.45;1.85;;;;;;;;;;5128129;27;20039;-64
2022/07/28 04:27:27;;;;;;;6.97;2.13;;;;;;;;;;5126722;27;20062;-64
2022/07/28 04:29:53;;;;;;;3.00;1.70;;;;;;;;;;5110737;27;20047;-64
2022/07/28 04:32:19;;;;;;;4.68;1.80;;;;;;;;;;5122889;27;20077;-64
2022/07/28 04:34:45;;;;;;;4.55;1.77;;;;;;;;;;5121955;27;20041;-64
2022/07/28 04:37:13;;;;;;;4.90;2.47;;;;;;;;;;5102703;28;20092;-64
2022/07/28 04:39:40;;;;;;;8.35;2.10;;;;;;;;;;5128107;27;20046;-64
2022/07/28 04:42:06;;;;;;;6.05;2.72;;;;;;;;;;5135381;27;20042;-64
2022/07/28 04:44:34;;;;;;;5.47;2.72;;;;;;;;;;5138216;27;20051;-64
2022/07/28 04:47:00;;;;;;;9.13;3.10;;;;;;;;;;5127410;27;20039;-64
2022/07/28 04:49:26;;;;;;;12.63;3.47;;;;;;;;;;5108491;27;20053;-64
2022/07/28 04:51:52;;;;;;;6.18;3.13;;;;;;;;;;5108443;27;20088;-63
2022/07/28 04:54:19;;;;;;;6.43;3.00;;;;;;;;;;5129206;27;20118;-64
2022/07/28 04:56:45;;;;;;;13.13;4.88;;;;;;;;;;5131546;27;20047;-64
2022/07/28 04:59:11;;;;;;;7.20;3.35;;;;;;;;;;5114221;27;20038;-64
2022/07/28 05:01:39;;;;;;;5.25;3.15;;;;;;;;;;5116251;27;20176;-64
2022/07/28 05:04:05;;;;;;;6.13;3.03;;;;;;;;;;5116405;27;20056;-64
2022/07/28 05:06:34;;;;;;;8.88;3.35;;;;;;;;;;5127940;27;20531;-64
2022/07/28 05:09:00;;;;;;;5.30;2.53;;;;;;;;;;5112770;27;20565;-64
2022/07/28 05:11:26;;;;;;;6.05;3.50;;;;;;;;;;5135687;27;20046;-64
2022/07/28 05:13:53;;;;;;;11.73;2.75;;;;;;;;;;5136350;27;20046;-64
2022/07/28 05:16:19;;;;;;;7.85;2.78;;;;;;;;;;5134978;27;20055;-64
2022/07/28 05:18:45;;;;;;;7.25;3.35;;;;;;;;;;5132107;27;20042;-64
2022/07/28 05:21:12;;;;;;;6.88;3.47;;;;;;;;;;5133200;27;20122;-64
2022/07/28 05:23:38;;;;;;;7.47;3.30;;;;;;;;;;5136823;27;20149;-64
2022/07/28 05:26:05;;;;;;;6.90;3.05;;;;;;;;;;5133313;27;20651;-64
2022/07/28 05:28:32;;;;;;;6.45;3.25;;;;;;;;;;5134621;27;20043;-64
2022/07/28 05:30:58;;;;;;;7.13;2.83;;;;;;;;;;5126153;27;20039;-64
2022/07/28 05:33:25;;;;;;;7.57;3.15;;;;;;;;;;5111716;27;20358;-64
2022/07/28 05:35:53;;;;;;;6.93;3.72;;;;;;;;;;5129929;27;20273;-64
2022/07/28 05:38:19;;;;;;;9.18;3.88;;;;;;;;;;5114441;27;20057;-64
2022/07/28 05:40:47;;;;;;;10.27;4.22;;;;;;;;;;5106261;27;20089;-64
2022/07/28 05:43:13;;;;;;;9.55;4.13;;;;;;;;;;5136847;27;20043;-64
2022/07/28 05:45:39;;;;;;;7.43;4.25;;;;;;;;;;5117990;27;20047;-64
2022/07/28 05:48:06;;;;;;;8.25;4.28;;;;;;;;;;5112494;27;20129;-64
2022/07/28 05:50:32;;;;;;;7.00;4.00;;;;;;;;;;5128827;27;20111;-64
2022/07/28 05:52:58;;;;;;;6.22;3.20;;;;;;;;;;5113140;27;20166;-64
2022/07/28 05:55:25;;;;;;;5.10;3.33;;;;;;;;;;5130811;27;20051;-64
2022/07/28 05:57:52;;;;;;;4.88;3.15;;;;;;;;;;5110821;27;20503;-64
2022/07/28 06:00:20;;;;;;;4.88;3.13;;;;;;;;;;5131672;27;20513;-64
2022/07/28 06:02:48;;;;;;;6.78;3.67;;;;;;;;;;5126687;27;20460;-64
2022/07/28 06:05:16;;;;;;;7.47;3.40;;;;;;;;;;5131683;27;20075;-64
2022/07/28 06:07:42;;;;;;;6.50;2.88;;;;;;;;;;5109466;27;20057;-64
2022/07/28 06:10:09;;;;;;;6.72;3.22;;;;;;;;;;5124013;27;20124;-64
2022/07/28 06:12:39;;;;;;;8.70;3.13;;;;;;;;;;5136895;27;20039;-64
2022/07/28 06:15:06;;;;;;;8.27;3.00;;;;;;;;;;5134768;27;20413;-65
2022/07/28 06:17:32;;;;;;;9.65;2.92;;;;;;;;;;5139900;27;20527;-65
2022/07/28 06:19:58;;;;;;;7.85;3.28;;;;;;;;;;5130592;27;20754;-64
2022/07/28 06:22:25;;;;;;;9.80;2.97;;;;;;;;;;5128427;27;20100;-64
2022/07/28 06:24:51;;;;;;;6.97;2.85;;;;;;;;;;5130836;27;20042;-64
2022/07/28 06:27:17;;;;;;;6.45;2.80;;;;;;;;;;5128658;27;20043;-64
2022/07/28 06:29:43;;;;;;;9.38;3.20;;;;;;;;;;5126808;27;20550;-64
2022/07/28 06:32:09;;;;;;;5.60;2.85;;;;;;;;;;5118052;27;21767;-64
2022/07/28 06:34:35;;;;;;;8.45;3.15;;;;;;;;;;5136209;27;20143;-64
2022/07/28 06:37:02;;;;;;;6.30;2.83;;;;;;;;;;5107194;27;20471;-64
2022/07/28 06:39:28;;;;;;;6.35;2.92;;;;;;;;;;5108928;27;20882;-64
2022/07/28 06:41:54;;;;;;;6.72;1.70;;;;;;;;;;5127378;27;20390;-64
2022/07/28 06:44:20;;;;;;;5.28;1.92;;;;;;;;;;5128830;27;20074;-64
2022/07/28 06:46:46;;;;;;;6.75;2.35;;;;;;;;;;5127646;27;20057;-64
2022/07/28 06:49:12;;;;;;;7.03;2.20;;;;;;;;;;5132318;27;20042;-64
2022/07/28 06:51:39;;;;;;;4.32;1.50;;;;;;;;;;5134574;27;20038;-64
2022/07/28 06:54:05;;;;;;;7.63;1.85;;;;;;;;;;5109988;27;20047;-64
2022/07/28 06:56:31;;;;;;;11.85;2.03;;;;;;;;;;5132350;27;20118;-65
2022/07/28 06:58:57;;;;;;;8.10;2.15;;;;;;;;;;5127893;27;21256;-64
2022/07/28 07:01:23;;;;;;;7.80;2.03;;;;;;;;;;5126726;27;20061;-64
2022/07/28 07:03:49;;;;;;;5.97;1.70;;;;;;;;;;5128403;27;20039;-65
2022/07/28 07:06:16;;;;;;;6.05;2.22;;;;;;;;;;5105021;27;20190;-64
2022/07/28 07:08:42;;;;;;;5.00;1.20;;;;;;;;;;5130848;27;20481;-65
2022/07/28 07:11:08;;;;;;;6.47;1.10;;;;;;;;;;5114969;27;20042;-65
2022/07/28 07:13:35;;;;;;;4.75;1.45;;;;;;;;;;5138973;27;20126;-65
2022/07/28 07:16:01;;;;;;;3.67;0.98;;;;;;;;;;5139960;27;20134;-65
2022/07/28 07:18:28;;;;;;;6.28;1.15;;;;;;;;;;5115383;27;20058;-65
2022/07/28 07:20:56;;;;;;;4.95;1.00;;;;;;;;;;5134305;27;20027;-65
2022/07/28 07:23:22;;;;;;;3.35;1.38;;;;;;;;;;5115954;27;20125;-64
2022/07/28 07:25:48;;;;;;;5.47;1.30;;;;;;;;;;5115901;27;20174;-65
2022/07/28 07:28:14;;;;;;;3.65;1.20;;;;;;;;;;5114536;27;20047;-65
2022/07/28 07:30:41;;;;;;;2.80;1.05;;;;;;;;;;5131697;27;20036;-65
2022/07/28 07:33:07;;;;;;;6.15;1.15;;;;;;;;;;5131616;27;20034;-65
2022/07/28 07:35:33;;;;;;;4.93;1.55;;;;;;;;;;5129475;27;20453;-65
2022/07/28 07:38:00;;;;;;;8.65;1.23;;;;;;;;;;5108588;27;20462;-65
2022/07/28 07:40:26;;;;;;;3.33;0.90;;;;;;;;;;5128794;27;20429;-65
2022/07/28 07:42:52;;;;;;;4.45;1.15;;;;;;;;;;5105677;27;20058;-65
2022/07/28 07:45:18;;;;;;;6.78;1.35;;;;;;;;;;5127273;27;20035;-65
2022/07/28 07:47:44;;;;;;;5.55;1.13;;;;;;;;;;5128055;27;20127;-65
2022/07/28 07:50:11;;;;;;;6.47;1.40;;;;;;;;;;5110896;27;20107;-65
2022/07/28 07:52:37;;;;;;;6.45;1.40;;;;;;;;;;5130720;27;20043;-66
2022/07/28 07:55:03;;;;;;;5.03;1.45;;;;;;;;;;5115704;27;20122;-65
2022/07/28 07:57:29;;;;;;;4.05;1.02;;;;;;;;;;5130408;27;20035;-66
2022/07/28 07:59:56;;;;;;;10.45;1.90;;;;;;;;;;5105689;27;20058;-65
2022/07/28 08:02:22;;;;;;;4.00;1.35;;;;;;;;;;5104683;27;20339;-65
2022/07/28 08:04:48;;;;;;;4.20;1.20;;;;;;;;;;5126712;27;20045;-65
2022/07/28 08:07:15;;;;;;;7.18;1.27;;;;;;;;;;5128064;27;20461;-65
2022/07/28 08:09:41;;;;;;;6.72;1.27;;;;;;;;;;5129258;27;20429;-64
2022/07/28 08:12:07;;;;;;;5.88;1.70;;;;;;;;;;5130860;27;20243;-65
2022/07/28 08:14:33;;;;;;;5.90;1.05;;;;;;;;;;5111743;27;20087;-65
2022/07/28 08:17:00;;;;;;;4.60;1.10;;;;;;;;;;5113567;27;20043;-65
2022/07/28 08:19:26;;;;;;;6.90;1.00;;;;;;;;;;5115453;27;20092;-65
2022/07/28 08:21:54;;;;;;;3.38;1.08;;;;;;;;;;5114030;27;20757;-65
2022/07/28 08:24:20;;;;;;;4.82;1.00;;;;;;;;;;5116295;27;20105;-65
2022/07/28 08:26:46;;;;;;;5.10;1.33;;;;;;;;;;5110907;27;20074;-65
2022/07/28 08:29:12;;;;;;;5.35;1.25;;;;;;;;;;5114418;27;20051;-65
2022/07/28 08:31:38;;;;;;;7.47;1.40;;;;;;;;;;5112998;27;20077;-65
2022/07/28 08:34:05;;;;;;;4.93;1.33;;;;;;;;;;5115072;27;20035;-65
2022/07/28 08:36:31;;;;;;;10.52;1.52;;;;;;;;;;5111848;27;20047;-65
2022/07/28 08:38:57;;;;;;;4.07;1.33;;;;;;;;;;5120964;27;20040;-65
2022/07/28 08:41:29;;;;;;;2.38;0.73;;;;;;;;;;5112475;27;20039;-64
2022/07/28 08:43:56;;;;;;;4.93;1.75;;;;;;;;;;5109958;27;20138;-65
2022/07/28 08:46:22;;;;;;;4.13;0.90;;;;;;;;;;5105753;27;20055;-65
2022/07/28 08:48:49;;;;;;;4.63;1.38;;;;;;;;;;5111430;27;20047;-64
2022/07/28 08:51:15;;;;;;;5.00;1.27;;;;;;;;;;5108201;27;20489;-65
2022/07/28 08:53:43;;;;;;;6.78;1.10;;;;;;;;;;5111966;27;20396;-65
2022/07/28 08:56:11;;;;;;;5.50;1.00;;;;;;;;;;5111119;27;20509;-65
2022/07/28 08:58:38;;;;;;;4.07;0.85;;;;;;;;;;5108571;27;20040;-65
2022/07/28 09:01:07;;;;;;;8.38;1.05;;;;;;;;;;5113496;27;20463;-65
2022/07/28 09:03:33;;;;;;;7.40;1.10;;;;;;;;;;5113534;27;20130;-65
2022/07/28 09:06:00;;;;;;;5.72;1.35;;;;;;;;;;5114358;27;20031;-65
2022/07/28 09:08:26;;;;;;;4.10;1.30;;;;;;;;;;5106102;27;20044;-65
2022/07/28 09:10:52;;;;;;;3.60;1.10;;;;;;;;;;5105810;27;20039;-65
2022/07/28 09:13:19;;;;;;;3.60;1.10;;;;;;;;;;5109191;27;20085;-65
2022/07/28 09:15:45;;;;;;;6.75;1.10;;;;;;;;;;5119052;27;20050;-65
2022/07/28 09:18:13;;;;;;;6.07;1.10;;;;;;;;;;5125683;27;20118;-65
2022/07/28 09:20:40;;;;;;;9.50;1.23;;;;;;;;;;5134071;27;20470;-65
2022/07/28 09:23:06;;;;;;;14.45;2.15;;;;;;;;;;5136536;27;20046;-65
2022/07/28 09:25:33;;;;;;;5.18;1.00;;;;;;;;;;5141014;27;20054;-65
2022/07/28 09:28:07;;;;;;;4.80;1.20;;;;;;;;;;5126792;27;20041;-65
2022/07/28 09:30:34;;;;;;;4.45;1.02;;;;;;;;;;5104648;27;20122;-65
2022/07/28 09:33:12;;;;;;;4.78;1.38;;;;;;;;;;5111762;27;20111;-65
2022/07/28 09:35:46;;;;;;;2.50;1.10;;;;;;;;;;5128426;27;20033;-65
2022/07/28 09:38:13;;;;;;;6.30;1.38;;;;;;;;;;5125670;27;20142;-64
2022/07/28 09:40:40;;;;;;;6.68;1.50;;;;;;;;;;5129568;27;20407;-65
2022/07/28 09:43:06;;;;;;;4.28;1.50;;;;;;;;;;5131430;27;20497;-65
2022/07/28 09:45:32;;;;;;;3.35;1.20;;;;;;;;;;5136193;27;20489;-65
2022/07/28 09:48:12;;;;;;;3.15;1.02;;;;;;;;;;5126215;27;20038;-65
2022/07/28 09:50:39;;;;;;;3.35;1.00;;;;;;;;;;5114482;27;20095;-65
2022/07/28 09:53:26;;;;;;;2.72;1.02;;;;;;;;;;5141220;27;20043;-65
2022/07/28 09:55:55;;;;;;;6.03;1.13;;;;;;;;;;5129710;27;20057;-65
2022/07/28 09:58:21;;;;;;;3.08;0.90;;;;;;;;;;5124567;27;20047;-65
2022/07/28 10:00:47;;;;;;;5.45;1.17;;;;;;;;;;5126427;27;20039;-65
2022/07/28 10:03:25;;;;;;;5.88;1.10;;;;;;;;;;5109541;27;20059;-65
2022/07/28 10:05:51;;;;;;;5.35;1.30;;;;;;;;;;5126331;27;20035;-65
2022/07/28 10:08:17;;;;;;;5.13;1.30;;;;;;;;;;5128039;27;20032;-65
2022/07/28 10:10:57;;;;;;;4.90;1.13;;;;;;;;;;5111896;27;20047;-65
2022/07/28 10:13:23;;;;;;;4.57;1.13;;;;;;;;;;5126382;27;20058;-65
2022/07/28 10:16:11;;;;;;;6.75;1.10;;;;;;;;;;5130800;27;20474;-65
2022/07/28 10:18:39;;;;;;;2.38;1.08;;;;;;;;;;5122587;27;20039;-65
2022/07/28 10:21:08;;;;;;;2.67;0.90;;;;;;;;;;5127751;27;20149;-66
2022/07/28 10:23:43;;;;;;;5.63;1.05;;;;;;;;;;5129716;27;20042;-65
2022/07/28 10:26:10;;;;;;;4.32;0.90;;;;;;;;;;5130183;27;20059;-65
2022/07/28 10:28:37;;;;;;;2.85;0.80;;;;;;;;;;5134888;27;20118;-65
2022/07/28 10:31:04;;;;;;;4.40;1.05;;;;;;;;;;5131814;27;21563;-65
2022/07/28 10:33:32;;;;;;;4.80;0.90;;;;;;;;;;5129575;27;20451;-67
2022/07/28 10:35:58;;;;;;;5.85;1.40;;;;;;;;;;5132250;27;20062;-67
2022/07/28 10:38:28;;;;;;;3.45;1.20;;;;;;;;;;5133209;27;20367;-67
2022/07/28 10:40:55;;;;;;;2.92;1.00;;;;;;;;;;5114415;27;20138;-67
2022/07/28 10:43:23;;;;;;;4.80;1.38;;;;;;;;;;5113078;27;20043;-66
2022/07/28 10:45:49;;;;;;;3.40;1.15;;;;;;;;;;5118311;27;20074;-67
2022/07/28 10:48:16;;;;;;;7.28;1.50;;;;;;;;;;5091311;27;20091;-66
2022/07/28 10:50:42;;;;;;;4.03;1.50;;;;;;;;;;5126559;27;20070;-67
2022/07/28 10:53:11;;;;;;;3.10;1.20;;;;;;;;;;5108912;27;20449;-67
2022/07/28 10:55:45;;;;;;;4.30;1.13;;;;;;;;;;5132115;27;20035;-66
2022/07/28 10:58:16;;;;;;;4.40;1.25;;;;;;;;;;5134467;27;20054;-67
2022/07/28 11:00:46;;;;;;;6.53;1.38;;;;;;;;;;5130397;27;20167;-66
2022/07/28 11:03:32;;;;;;;4.82;1.10;;;;;;;;;;5112435;27;20462;-66
2022/07/28 11:06:18;;;;;;;4.88;1.00;;;;;;;;;;5132821;27;20574;-67
2022/07/28 11:08:45;;;;;;;4.07;1.20;;;;;;;;;;5127046;27;20043;-66
2022/07/28 11:11:12;;;;;;;2.53;1.00;;;;;;;;;;5107003;27;20055;-64
2022/07/28 11:13:38;;;;;;;5.07;1.25;;;;;;;;;;5101506;27;20047;-67
2022/07/28 11:16:13;;;;;;;3.97;1.00;;;;;;;;;;5122169;27;20142;-66
2022/07/28 11:19:03;;;;;;;3.55;1.45;;;;;;;;;;5102742;27;20206;-66
2022/07/28 11:21:29;;;;;;;3.50;1.08;;;;;;;;;;5121631;27;20528;-67
2022/07/28 11:23:56;;;;;;;5.65;1.33;;;;;;;;;;5105600;27;20099;-66
2022/07/28 11:26:23;;;;;;;2.63;0.80;;;;;;;;;;5124966;27;20130;-67
2022/07/28 11:28:59;;;;;;;3.15;1.15;;;;;;;;;;5105298;27;20047;-66
2022/07/28 11:31:43;;;;;;;2.45;1.10;;;;;;;;;;5122718;27;20039;-66
2022/07/28 11:34:11;;;;;;;3.55;1.00;;;;;;;;;;5105852;27;20053;-67
2022/07/28 11:36:56;;;;;;;4.72;1.02;;;;;;;;;;5107378;27;20129;-67
2022/07/28 11:39:30;;;;;;;3.45;1.50;;;;;;;;;;5124304;27;20054;-67
2022/07/28 11:41:57;;;;;;;3.35;1.20;;;;;;;;;;5126229;27;20073;-65
2022/07/28 11:44:24;;;;;;;4.88;1.80;;;;;;;;;;5132365;27;20043;-66
2022/07/28 11:46:50;;;;;;;1.92;0.80;;;;;;;;;;5135685;27;20071;-66
2022/07/28 11:49:19;;;;;;;4.10;1.02;;;;;;;;;;5117193;27;20091;-66
2022/07/28 11:52:04;;;;;;;4.45;1.20;;;;;;;;;;5127850;27;20070;-66
2022/07/28 11:54:31;;;;;;;8.50;1.30;;;;;;;;;;5123905;27;20125;-66
2022/07/28 11:56:58;;;;;;;8.98;1.55;;;;;;;;;;5118322;27;20038;-65
2022/07/28 11:59:24;;;;;;;3.35;1.30;;;;;;;;;;5117459;27;20423;-65
2022/07/28 12:01:51;;;;;;;5.00;1.10;;;;;;;;;;5124484;27;20485;-65
2022/07/28 12:04:18;;;;;;;3.03;0.70;;;;;;;;;;5108174;27;20478;-66
2022/07/28 12:06:45;;;;;;;3.35;0.70;;;;;;;;;;5114897;27;20122;-66
2022/07/28 12:09:12;;;;;;;7.40;0.80;;;;;;;;;;5113387;27;20042;-66
2022/07/28 12:11:40;;;;;;;5.03;1.33;;;;;;;;;;5130200;27;20167;-66
2022/07/28 12:14:08;;;;;;;3.58;0.82;;;;;;;;;;5107438;28;20440;-66
2022/07/28 12:16:35;;;;;;;4.47;0.90;;;;;;;;;;5110636;27;20047;-66
2022/07/28 12:19:02;;;;;;;5.78;0.70;;;;;;;;;;5131131;27;20043;-66
2022/07/28 12:21:35;;;;;;;3.20;0.85;;;;;;;;;;5112251;27;20474;-66
2022/07/28 12:24:02;;;;;;;3.45;0.70;;;;;;;;;;5128784;27;20134;-66
2022/07/28 12:26:30;;;;;;;2.10;0.68;;;;;;;;;;5129300;27;20035;-65
2022/07/28 12:28:57;;;;;;;3.80;0.70;;;;;;;;;;5129732;27;20078;-65
2022/07/28 12:31:28;;;;;;;3.63;0.82;;;;;;;;;;5107766;27;20043;-66
2022/07/28 12:33:54;;;;;;;4.05;0.90;;;;;;;;;;5132457;27;20051;-65
2022/07/28 12:36:22;;;;;;;4.18;0.90;;;;;;;;;;5130751;27;20081;-66
2022/07/28 12:38:50;;;;;;;3.58;0.90;;;;;;;;;;5130156;27;20386;-66
2022/07/28 12:41:17;;;;;;;2.88;0.80;;;;;;;;;;5132953;27;20046;-66
2022/07/28 12:43:51;;;;;;;3.88;0.70;;;;;;;;;;5129736;27;20043;-65
2022/07/28 12:46:35;;;;;;;5.53;1.52;;;;;;;;;;5105748;27;20043;-66
2022/07/28 12:49:02;;;;;;;4.72;1.35;;;;;;;;;;5125725;27;20534;-65
2022/07/28 12:51:30;;;;;;;3.63;0.98;;;;;;;;;;5127646;27;20035;-65
2022/07/28 12:53:56;;;;;;;4.45;0.98;;;;;;;;;;5130965;27;20051;-65
2022/07/28 12:56:22;;;;;;;3.25;0.80;;;;;;;;;;5108548;27;20066;-66
2022/07/28 12:58:55;;;;;;;4.28;1.20;;;;;;;;;;5131847;27;20087;-65
2022/07/28 13:01:21;;;;;;;5.00;1.03;;;;;;;;;;5125490;27;20082;-66
2022/07/28 13:03:47;;;;;;;6.45;1.13;;;;;;;;;;5116120;27;20058;-67
2022/07/28 13:06:14;;;;;;;4.40;0.90;;;;;;;;;;5111766;27;20047;-67
2022/07/28 13:08:45;;;;;;;2.92;0.60;;;;;;;;;;5130108;27;20131;-67
2022/07/28 13:11:12;;;;;;;4.30;1.00;;;;;;;;;;5116748;27;20038;-67
2022/07/28 13:13:47;;;;;;;3.65;0.90;;;;;;;;;;5116589;27;20052;-67
2022/07/28 13:16:15;;;;;;;3.50;0.88;;;;;;;;;;5111620;27;20078;-67
2022/07/28 13:18:44;;;;;;;3.47;1.05;;;;;;;;;;5134905;27;20051;-67
2022/07/28 13:21:10;;;;;;;4.22;0.70;;;;;;;;;;5118956;27;20055;-66
2022/07/28 13:23:37;;;;;;;4.45;0.93;;;;;;;;;;5111572;27;20046;-66
2022/07/28 13:26:04;;;;;;;4.00;0.80;;;;;;;;;;5127611;27;20040;-66
2022/07/28 13:28:30;;;;;;;3.65;0.80;;;;;;;;;;5110880;27;20059;-64
2022/07/28 13:30:57;;;;;;;3.58;0.77;;;;;;;;;;5131371;27;20047;-65
2022/07/28 13:33:25;;;;;;;2.72;1.00;;;;;;;;;;5131152;27;20436;-65
2022/07/28 13:35:51;;;;;;;7.05;0.88;;;;;;;;;;5133870;27;20473;-65
2022/07/28 13:38:18;;;;;;;2.28;0.60;;;;;;;;;;5134182;27;20050;-64
2022/07/28 13:40:45;;;;;;;6.70;1.27;;;;;;;;;;5136863;27;20140;-65
2022/07/28 13:43:11;;;;;;;9.45;1.17;;;;;;;;;;5131395;27;20047;-64
2022/07/28 13:45:37;;;;;;;5.72;0.73;;;;;;;;;;5136666;27;20046;-64
2022/07/28 13:48:04;;;;;;;3.13;0.68;;;;;;;;;;5111861;27;20647;-65
2022/07/28 13:50:30;;;;;;;3.60;1.10;;;;;;;;;;5124367;27;20824;-65
2022/07/28 13:52:56;;;;;;;7.20;1.00;;;;;;;;;;5112667;27;20049;-63
2022/07/28 13:55:22;;;;;;;2.47;0.85;;;;;;;;;;5126128;27;20043;-70
2022/07/28 13:57:49;;;;;;;2.53;0.60;;;;;;;;;;5125684;27;20039;-65
2022/07/28 14:00:16;;;;;;;6.82;1.17;;;;;;;;;;5128813;27;20205;-65
2022/07/28 14:02:43;;;;;;;4.80;0.90;;;;;;;;;;5093091;27;20130;-65
2022/07/28 14:05:09;;;;;;;2.47;0.73;;;;;;;;;;5131486;27;20055;-65
2022/07/28 14:07:35;;;;;;;3.75;0.90;;;;;;;;;;5124312;27;20091;-65
2022/07/28 14:10:02;;;;;;;6.95;1.15;;;;;;;;;;5103092;27;20043;-65
2022/07/28 14:12:28;;;;;;;4.85;1.13;;;;;;;;;;5108115;27;20521;-65
2022/07/28 14:14:54;;;;;;;5.25;0.90;;;;;;;;;;5127690;27;20130;-65
2022/07/28 14:17:22;;;;;;;3.45;0.77;;;;;;;;;;5125046;27;20075;-65
2022/07/28 14:19:49;;;;;;;2.70;0.90;;;;;;;;;;5104046;27;20078;-65
2022/07/28 14:22:15;;;;;;;3.88;1.25;;;;;;;;;;5121992;27;20444;-65
2022/07/28 14:24:41;;;;;;;6.78;0.95;;;;;;;;;;5130422;27;20066;-65
2022/07/28 14:27:07;;;;;;;9.05;0.80;;;;;;;;;;5129609;27;20049;-65
2022/07/28 14:29:34;;;;;;;3.58;1.05;;;;;;;;;;5125810;27;20143;-65
2022/07/28 14:32:00;;;;;;;4.57;0.68;;;;;;;;;;5108991;27;20307;-65
2022/07/28 14:34:26;;;;;;;4.70;0.82;;;;;;;;;;5127507;27;20043;-65
2022/07/28 14:36:52;;;;;;;3.15;0.65;;;;;;;;;;5128349;27;20074;-65
2022/07/28 14:39:19;;;;;;;4.53;0.73;;;;;;;;;;5109362;27;20046;-65
2022/07/28 14:41:45;;;;;;;2.80;0.77;;;;;;;;;;5129057;27;20039;-65
2022/07/28 14:44:11;;;;;;;2.63;0.70;;;;;;;;;;5112192;27;20065;-65
2022/07/28 14:46:37;;;;;;;3.30;0.90;;;;;;;;;;5132443;27;20045;-65